Temp: 9.9°C   Baro: 1017.7mb
  Wind: 9.0mph   Dir: NNW (335°)
  Rain: 0.0mm (0.0mm/hr)
  Sun: 241W/m2  Humidity: 61%

Historic data

Bath Spa Weather Station Historical Data
Daily Summary for February 27, 2024 Units:  Metric    English   Both
Daily Weekly Monthly Yearly Custom
  High: Low: Average:
Temperature: 7.9 °C -0.8 °C 4.1 °C
Dew Point: 6.4 °C -2 °C 2.4 °C
Humidity: 94% 77% 89%
Wind Speed: 12.6km/h 0km/h 2.7km/h
Wind Gust: 19.3km/h - -
Wind- - WSW
Pressure: 1023.9 hPa 1019.9 hPa -
Precipitation: 0 mm    
Historical Graphs
 
 
Tabular Data for February 27, 2024
Time Temperature Dew Point Pressure Wind Wind Speed Wind Gust Humidity Rainfall Rate (Hourly) solar
00:09 1.9 °C -0.2 °C 1023.6 hPa WNW 4.3 km/h 8 km/h 86% 0 mm 0 W/m2
00:14 1.8 °C -0.2 °C 1023.6 hPa WNW 3.2 km/h 6.4 km/h 86.2% 0 mm 0 W/m2
00:19 1.8 °C -0.1 °C 1023.2 hPa NW 1.9 km/h 9.7 km/h 87% 0 mm 0 W/m2
00:24 1.9 °C 0 °C 1023.2 hPa NNW 0.6 km/h 1.6 km/h 87% 0 mm 0 W/m2
00:29 1.8 °C -0.1 °C 1023.2 hPa NNW 0.6 km/h 3.2 km/h 87% 0 mm 0 W/m2
00:34 1.7 °C -0.2 °C 1023.6 hPa Calm   1.6 km/h 87% 0 mm 0 W/m2
00:39 1.7 °C -0.1 °C 1023.6 hPa Calm   1.6 km/h 87.8% 0 mm 0 W/m2
00:44 1.6 °C -0.2 °C 1023.6 hPa Calm     88% 0 mm 0 W/m2
00:49 1.5 °C -0.3 °C 1023.6 hPa NW 3.2 km/h 6.4 km/h 88% 0 mm 0 W/m2
00:54 1.7 °C -0.2 °C 1023.6 hPa NW 3.2 km/h 12.9 km/h 88% 0 mm 0 W/m2
00:59 1.7 °C -0.1 °C 1023.6 hPa NNW 3.9 km/h 8 km/h 88% 0 mm 0 W/m2
01:04 2.1 °C 0.2 °C 1023.6 hPa North 5 km/h 11.3 km/h 88% 0 mm 0 W/m2
01:09 2.3 °C 0.6 °C 1023.6 hPa North 7.2 km/h 12.9 km/h 88.4% 0 mm 0 W/m2
01:14 2.7 °C 1.1 °C 1023.6 hPa North 9.7 km/h 16.1 km/h 89% 0 mm 0 W/m2
01:19 2.8 °C 1.2 °C 1023.6 hPa NNW 6.1 km/h 17.7 km/h 89% 0 mm 0 W/m2
01:24 2.8 °C 1.2 °C 1023.6 hPa NW 6 km/h 12.9 km/h 89% 0 mm 0 W/m2
01:29 2.8 °C 1.1 °C 1023.6 hPa NW 3.7 km/h 9.7 km/h 88.2% 0 mm 0 W/m2
01:34 2.6 °C 0.8 °C 1023.6 hPa NW 2.1 km/h 6.4 km/h 88% 0 mm 0 W/m2
01:39 2.4 °C 0.7 °C 1023.6 hPa NW 0.6 km/h 4.8 km/h 88% 0 mm 0 W/m2
01:44 2.3 °C 0.5 °C 1023.6 hPa NW 0.6 km/h 4.8 km/h 88% 0 mm 0 W/m2
01:49 2.1 °C 0.3 °C 1023.9 hPa NW 1.1 km/h 6.4 km/h 88% 0 mm 0 W/m2
01:54 1.8 °C 0.1 °C 1023.9 hPa NW 1 km/h 4.8 km/h 88% 0 mm 0 W/m2
01:59 1.7 °C -0.1 °C 1023.9 hPa NW 1 km/h 3.2 km/h 88% 0 mm 0 W/m2
02:04 1.6 °C -0.2 °C 1023.9 hPa Calm   3.2 km/h 88% 0 mm 0 W/m2
02:09 1.5 °C -0.3 °C 1023.9 hPa Calm   1.6 km/h 88% 0 mm 0 W/m2
02:14 1.4 °C -0.4 °C 1023.9 hPa NW 0.3 km/h 1.6 km/h 88% 0 mm 0 W/m2
02:19 1.4 °C -0.4 °C 1023.9 hPa North 1 km/h 4.8 km/h 88% 0 mm 0 W/m2
02:24 1.3 °C -0.4 °C 1023.6 hPa North 0.6 km/h 1.6 km/h 88.2% 0 mm 0 W/m2
02:29 1.2 °C -0.3 °C 1023.6 hPa North 2.1 km/h 4.8 km/h 89% 0 mm 0 W/m2
02:34 1.1 °C -0.5 °C 1023.9 hPa WNW 4 km/h 6.4 km/h 89% 0 mm 0 W/m2
02:39 1.1 °C -0.6 °C 1023.9 hPa WSW 3.9 km/h 8 km/h 89% 0 mm 0 W/m2
02:44 0.9 °C -0.7 °C 1023.9 hPa Calm   3.2 km/h 89% 0 mm 0 W/m2
02:49 0.9 °C -0.7 °C 1023.9 hPa Calm     89% 0 mm 0 W/m2
02:54 0.8 °C -0.8 °C 1023.6 hPa Calm   1.6 km/h 89% 0 mm 0 W/m2
02:59 0.7 °C -0.9 °C 1023.6 hPa WSW 0.6 km/h 3.2 km/h 89.2% 0 mm 0 W/m2
03:04 0.6 °C -0.9 °C 1023.6 hPa WSW 2.1 km/h 4.8 km/h 89.8% 0 mm 0 W/m2
03:09 0.6 °C -0.9 °C 1023.9 hPa WSW 1.9 km/h 6.4 km/h 89.8% 0 mm 0 W/m2
03:14 0.3 °C -1.1 °C 1023.9 hPa WSW 2.9 km/h 6.4 km/h 90% 0 mm 0 W/m2
03:19 0.2 °C -1.2 °C 1023.9 hPa WSW 0.3 km/h 3.2 km/h 90% 0 mm 0 W/m2
03:24 0.2 °C -1.2 °C 1023.6 hPa WSW 1.4 km/h 4.8 km/h 90% 0 mm 0 W/m2
03:29 0.2 °C -1.3 °C 1023.6 hPa WSW 1.8 km/h 4.8 km/h 90% 0 mm 0 W/m2
03:34 0.1 °C -1.3 °C 1023.2 hPa WSW 0.3 km/h 3.2 km/h 90% 0 mm 0 W/m2
03:39 -0.1 °C -1.5 °C 1023.2 hPa WSW 0.3 km/h 1.6 km/h 90% 0 mm 0 W/m2
03:44 -0.2 °C -1.6 °C 1023.2 hPa Calm   1.6 km/h 90% 0 mm 0 W/m2
03:49 -0.3 °C -1.7 °C 1023.2 hPa Calm     90% 0 mm 0 W/m2
03:54 -0.3 °C -1.7 °C 1022.9 hPa Calm     90% 0 mm 0 W/m2
03:59 -0.4 °C -1.8 °C 1022.9 hPa WSW 1.3 km/h 3.2 km/h 90% 0 mm 0 W/m2
04:04 -0.4 °C -1.7 °C 1022.9 hPa WSW 2.6 km/h 4.8 km/h 91% 0 mm 0 W/m2
04:09 -0.4 °C -1.7 °C 1022.9 hPa WSW 2.6 km/h 4.8 km/h 91% 0 mm 0 W/m2
04:14 -0.4 °C -1.7 °C 1022.9 hPa Calm   3.2 km/h 91% 0 mm 0 W/m2
04:19 -0.4 °C -1.7 °C 1022.9 hPa Calm   1.6 km/h 91% 0 mm 0 W/m2
04:24 -0.3 °C -1.7 °C 1022.9 hPa WSW 0.6 km/h 3.2 km/h 91% 0 mm 0 W/m2
04:29 -0.4 °C -1.7 °C 1022.9 hPa WSW 2.7 km/h 4.8 km/h 91% 0 mm 0 W/m2
04:34 -0.5 °C -1.8 °C 1023.2 hPa WSW 2.1 km/h 4.8 km/h 91% 0 mm 0 W/m2
04:39 -0.4 °C -1.7 °C 1023.2 hPa WSW 2.1 km/h 4.8 km/h 91% 0 mm 0 W/m2
04:44 -0.5 °C -1.8 °C 1023.2 hPa WSW 0.8 km/h 3.2 km/h 91% 0 mm 0 W/m2
04:49 -0.6 °C -1.8 °C 1023.2 hPa WSW 0.3 km/h 1.6 km/h 91% 0 mm 0 W/m2
04:54 -0.6 °C -1.9 °C 1023.2 hPa WSW 0.6 km/h 3.2 km/h 91% 0 mm 0 W/m2
04:59 -0.6 °C -1.9 °C 1023.2 hPa WSW 0.8 km/h 3.2 km/h 91% 0 mm 0 W/m2
05:04 -0.6 °C -1.9 °C 1023.2 hPa WSW 1.4 km/h 3.2 km/h 91.2% 0 mm 0 W/m2
05:09 -0.7 °C -2 °C 1023.2 hPa Calm   3.2 km/h 91% 0 mm 0 W/m2
05:14 -0.7 °C -2 °C 1023.6 hPa WSW 1.4 km/h 4.8 km/h 91% 0 mm 0 W/m2
05:19 -0.7 °C -1.9 °C 1023.6 hPa WSW 1.6 km/h 4.8 km/h 91.4% 0 mm 0 W/m2
05:24 -0.7 °C -1.8 °C 1023.6 hPa West 3.5 km/h 6.4 km/h 92% 0 mm 0 W/m2
05:29 -0.5 °C -1.6 °C 1023.6 hPa West 1.8 km/h 6.4 km/h 92% 0 mm 0 W/m2
05:34 -0.4 °C -1.5 °C 1023.9 hPa West 0.3 km/h 1.6 km/h 92% 0 mm 0 W/m2
05:39 -0.5 °C -1.6 °C 1023.9 hPa Calm   1.6 km/h 92% 0 mm 0 W/m2
05:44 -0.6 °C -1.7 °C 1023.9 hPa Calm   1.6 km/h 92% 0 mm 0 W/m2
05:49 -0.6 °C -1.7 °C 1023.9 hPa West 0.3 km/h 1.6 km/h 92% 0 mm 0 W/m2
05:53 -0.7 °C -1.8 °C 1023.9 hPa West 0.3 km/h 1.6 km/h 92% 0 mm 0 W/m2
05:59 -0.7 °C -1.8 °C 1023.9 hPa Calm   1.6 km/h 92% 0 mm 0 W/m2
06:04 -0.8 °C -1.8 °C 1023.6 hPa West 0.8 km/h 1.6 km/h 92% 0 mm 0 W/m2
06:09 -0.8 °C -1.9 °C 1023.6 hPa West 1.1 km/h 3.2 km/h 92% 0 mm 0 W/m2
06:14 -0.8 °C -1.9 °C 1023.6 hPa West 0.3 km/h 3.2 km/h 92% 0 mm 0 W/m2
06:19 -0.8 °C -1.9 °C 1023.6 hPa Calm   1.6 km/h 92% 0 mm 0 W/m2
06:24 -0.8 °C -1.9 °C 1023.9 hPa West 1.1 km/h 1.6 km/h 92% 0 mm 0 W/m2
06:29 -0.8 °C -1.9 °C 1023.6 hPa West 1.4 km/h 3.2 km/h 92% 0 mm 0 W/m2
06:34 -0.7 °C -1.8 °C 1023.6 hPa West 0.3 km/h 3.2 km/h 92% 0 mm 0 W/m2
06:39 -0.7 °C -1.8 °C 1023.9 hPa Calm     92% 0 mm 0 W/m2
06:44 -0.8 °C -1.9 °C 1023.6 hPa Calm     92% 0 mm 0 W/m2
06:49 -0.8 °C -1.9 °C 1023.6 hPa Calm     92% 0 mm 0 W/m2
06:54 -0.8 °C -1.8 °C 1023.9 hPa Calm     92% 0 mm 5 W/m2
06:59 -0.8 °C -1.8 °C 1023.9 hPa Calm     92.6% 0 mm 5 W/m2
07:04 -0.8 °C -1.8 °C 1023.6 hPa Calm     93% 0 mm 7 W/m2
07:09 -0.7 °C -1.7 °C 1023.6 hPa Calm     93% 0 mm 9 W/m2
07:14 -0.7 °C -1.7 °C 1023.9 hPa Calm     93% 0 mm 11 W/m2
07:19 -0.7 °C -1.7 °C 1023.9 hPa Calm     93% 0 mm 11 W/m2
07:24 -0.6 °C -1.6 °C 1023.9 hPa Calm     93% 0 mm 11 W/m2
07:29 -0.7 °C -1.7 °C 1023.9 hPa Calm     93% 0 mm 11 W/m2
07:34 -0.6 °C -1.6 °C 1023.9 hPa Calm     93% 0 mm 14 W/m2
07:39 -0.6 °C -1.6 °C 1023.9 hPa Calm     93% 0 mm 16 W/m2
07:44 -0.6 °C -1.6 °C 1023.9 hPa West 1.1 km/h 3.2 km/h 93% 0 mm 18 W/m2
07:49 -0.5 °C -1.5 °C 1023.9 hPa West 1.1 km/h 1.6 km/h 93% 0 mm 21 W/m2
07:54 -0.5 °C -1.5 °C 1023.9 hPa West 0.3 km/h 1.6 km/h 93% 0 mm 30 W/m2
07:59 -0.4 °C -1.4 °C 1023.9 hPa Calm   1.6 km/h 93% 0 mm 40 W/m2
08:04 -0.4 °C -1.4 °C 1023.9 hPa Calm     93% 0 mm 51 W/m2
08:09 -0.3 °C -1.3 °C 1023.9 hPa Calm   1.6 km/h 93% 0 mm 62 W/m2
08:14 -0.2 °C -1.2 °C 1023.9 hPa Calm     93% 0 mm 70 W/m2
08:19 -0.1 °C -1.1 °C 1023.9 hPa Calm     93% 0 mm 76 W/m2
08:24 -0.1 °C -1.1 °C 1023.9 hPa Calm     93% 0 mm 83 W/m2
08:29 0.1 °C -0.9 °C 1023.6 hPa Calm     93% 0 mm 91 W/m2
08:34 0.2 °C -0.8 °C 1023.6 hPa Calm     93% 0 mm 97 W/m2
08:39 0.3 °C -0.6 °C 1023.6 hPa West 0.3 km/h 1.6 km/h 93.2% 0 mm 97 W/m2
08:44 0.6 °C -0.3 °C 1023.6 hPa Calm   1.6 km/h 94% 0 mm 105 W/m2
08:49 0.7 °C -0.3 °C 1023.6 hPa Calm   1.6 km/h 93.4% 0 mm 121 W/m2
08:54 0.9 °C 0 °C 1023.2 hPa West 0.3 km/h 1.6 km/h 94% 0 mm 114 W/m2
08:59 1.2 °C 0.2 °C 1023.2 hPa Calm     94% 0 mm 116 W/m2
09:04 1.3 °C 0.4 °C 1023.2 hPa Calm   1.6 km/h 94% 0 mm 123 W/m2
09:09 1.5 °C 0.6 °C 1023.2 hPa West 0.3 km/h 1.6 km/h 94% 0 mm 123 W/m2
09:14 1.7 °C 0.7 °C 1023.2 hPa Calm   1.6 km/h 94% 0 mm 121 W/m2
09:19 1.7 °C 0.8 °C 1023.2 hPa Calm     94% 0 mm 105 W/m2
09:24 1.7 °C 0.8 °C 1023.2 hPa Calm     94% 0 mm 90 W/m2
09:29 1.8 °C 0.9 °C 1023.2 hPa Calm     94% 0 mm 91 W/m2
09:34 2 °C 1.1 °C 1023.2 hPa Calm     94% 0 mm 88 W/m2
09:39 2.2 °C 1.3 °C 1023.2 hPa Calm     94% 0 mm 105 W/m2
09:44 2.2 °C 1.3 °C 1023.2 hPa Calm     94% 0 mm 123 W/m2
09:49 2.3 °C 1.4 °C 1023.2 hPa Calm     94% 0 mm 139 W/m2
09:54 2.6 °C 1.7 °C 1023.2 hPa Calm     94% 0 mm 172 W/m2
09:59 2.7 °C 1.8 °C 1022.9 hPa Calm     94% 0 mm 206 W/m2
10:04 2.8 °C 1.9 °C 1023.2 hPa Calm   3.2 km/h 94% 0 mm 241 W/m2
10:09 3 °C 2.1 °C 1023.2 hPa West 0.3 km/h 3.2 km/h 94% 0 mm 267 W/m2
10:14 3.3 °C 2.3 °C 1022.9 hPa West 0.6 km/h 3.2 km/h 94% 0 mm 243 W/m2
10:19 3.4 °C 2.6 °C 1022.9 hPa West 1.3 km/h 3.2 km/h 94% 0 mm 204 W/m2
10:24 3.7 °C 2.8 °C 1022.9 hPa West 0.6 km/h 3.2 km/h 94% 0 mm 142 W/m2
10:29 3.6 °C 2.7 °C 1022.9 hPa West 0.3 km/h 1.6 km/h 94% 0 mm 185 W/m2
10:34 3.7 °C 2.8 °C 1022.9 hPa West 0.6 km/h 3.2 km/h 94% 0 mm 218 W/m2
10:39 3.8 °C 2.9 °C 1022.9 hPa SSW 3.4 km/h 9.7 km/h 94% 0 mm 220 W/m2
10:44 3.9 °C 3 °C 1022.9 hPa SSW 7.2 km/h 12.9 km/h 94% 0 mm 207 W/m2
10:49 4.1 °C 3.1 °C 1022.9 hPa SW 6.4 km/h 12.9 km/h 93.6% 0 mm 221 W/m2
10:54 4.3 °C 3.3 °C 1022.9 hPa SW 7.4 km/h 9.7 km/h 93.4% 0 mm 218 W/m2
10:59 4.4 °C 3.4 °C 1022.9 hPa SW 5.8 km/h 11.3 km/h 93% 0 mm 190 W/m2
11:04 4.6 °C 3.6 °C 1022.9 hPa South 5.5 km/h 16.1 km/h 93% 0 mm 209 W/m2
11:09 4.7 °C 3.6 °C 1022.9 hPa SW 7.9 km/h 14.5 km/h 92.8% 0 mm 206 W/m2
11:14 4.8 °C 3.6 °C 1022.9 hPa SW 9.7 km/h 16.1 km/h 92% 0 mm 160 W/m2
11:19 4.8 °C 3.6 °C 1022.9 hPa SW 6.1 km/h 14.5 km/h 91.6% 0 mm 121 W/m2
11:24 4.8 °C 3.5 °C 1022.9 hPa SW 7.2 km/h 11.3 km/h 91% 0 mm 105 W/m2
11:29 4.9 °C 3.4 °C 1022.9 hPa WSW 3.7 km/h 12.9 km/h 90% 0 mm 90 W/m2
11:34 4.8 °C 3.2 °C 1022.9 hPa WSW 6.9 km/h 11.3 km/h 89.2% 0 mm 91 W/m2
11:39 4.9 °C 3.2 °C 1022.9 hPa Calm   4.8 km/h 89% 0 mm 116 W/m2
11:44 5 °C 3.2 °C 1022.9 hPa WSW 2.7 km/h 6.4 km/h 88% 0 mm 128 W/m2
11:49 4.9 °C 3.1 °C 1022.6 hPa SW 1.3 km/h 8 km/h 88% 0 mm 139 W/m2
11:54 5 °C 3.1 °C 1022.6 hPa SW 2.7 km/h 6.4 km/h 87.4% 0 mm 123 W/m2
11:59 5.1 °C 3.1 °C 1022.6 hPa SW 3.1 km/h 8 km/h 87% 0 mm 113 W/m2
12:04 5.2 °C 3.2 °C 1022.2 hPa SW 3.7 km/h 11.3 km/h 87% 0 mm 209 W/m2
12:09 5.3 °C 3.2 °C 1022.2 hPa SW 3.7 km/h 9.7 km/h 86.2% 0 mm 323 W/m2
12:14 5.7 °C 3.4 °C 1022.2 hPa SW 5.3 km/h 9.7 km/h 86% 0 mm 306 W/m2
12:19 5.8 °C 3.6 °C 1022.2 hPa SSW 4.7 km/h 12.9 km/h 85.2% 0 mm 520 W/m2
12:24 6 °C 3.6 °C 1022.2 hPa SW 5.3 km/h 9.7 km/h 84.4% 0 mm 526 W/m2
12:29 6.2 °C 3.6 °C 1022.2 hPa SW 5.5 km/h 9.7 km/h 83.6% 0 mm 462 W/m2
12:34 6.6 °C 3.8 °C 1022.2 hPa SSW 5.3 km/h 11.3 km/h 82.8% 0 mm 529 W/m2
12:39 6.9 °C 3.9 °C 1022.2 hPa SSW 8.4 km/h 17.7 km/h 81.6% 0 mm 515 W/m2
12:44 6.9 °C 3.7 °C 1021.9 hPa SW 7.4 km/h 17.7 km/h 79.8% 0 mm 577 W/m2
12:49 7.1 °C 3.7 °C 1021.9 hPa SW 10 km/h 14.5 km/h 79% 0 mm 439 W/m2
12:54 7.1 °C 3.7 °C 1021.9 hPa SW 8.4 km/h 16.1 km/h 78.8% 0 mm 540 W/m2
12:59 7.4 °C 3.9 °C 1021.9 hPa SW 4.7 km/h 11.3 km/h 78.2% 0 mm 628 W/m2
13:04 7.4 °C 3.7 °C 1021.9 hPa SW 8.4 km/h 16.1 km/h 77.2% 0 mm 510 W/m2
13:09 7.3 °C 3.6 °C 1021.6 hPa SSW 7.6 km/h 16.1 km/h 77% 0 mm 452 W/m2
13:14 7.5 °C 3.7 °C 1021.6 hPa SSW 8.4 km/h 19.3 km/h 77% 0 mm 316 W/m2
13:19 7.3 °C 3.6 °C 1021.6 hPa SW 6.6 km/h 19.3 km/h 77% 0 mm 251 W/m2
13:24 7.3 °C 3.6 °C 1021.2 hPa SSW 8.2 km/h 11.3 km/h 77% 0 mm 246 W/m2
13:29 7.3 °C 3.5 °C 1021.2 hPa SSW 9.3 km/h 16.1 km/h 77% 0 mm 230 W/m2
13:34 7.2 °C 3.5 °C 1021.2 hPa SW 10.3 km/h 16.1 km/h 77.4% 0 mm 243 W/m2
13:39 7.3 °C 3.7 °C 1021.2 hPa SW 8 km/h 14.5 km/h 78% 0 mm 264 W/m2
13:44 7.4 °C 3.8 °C 1021.2 hPa SSW 5.8 km/h 12.9 km/h 78% 0 mm 257 W/m2
13:49 7.7 °C 4.1 °C 1020.9 hPa WSW 6.4 km/h 12.9 km/h 78% 0 mm 197 W/m2
13:54 7.6 °C 3.9 °C 1020.9 hPa SSW 9 km/h 19.3 km/h 78% 0 mm 207 W/m2
13:59 7.4 °C 3.8 °C 1020.9 hPa SW 12.6 km/h 19.3 km/h 78% 0 mm 206 W/m2
14:04 7.3 °C 3.8 °C 1020.9 hPa SW 10 km/h 17.7 km/h 78.2% 0 mm 151 W/m2
14:09 7.4 °C 4 °C 1020.9 hPa SW 7.4 km/h 14.5 km/h 79% 0 mm 130 W/m2
14:14 7.5 °C 4.1 °C 1020.5 hPa SW 8.4 km/h 14.5 km/h 79% 0 mm 130 W/m2
14:19 7.4 °C 4.1 °C 1020.5 hPa SW 7.7 km/h 12.9 km/h 79% 0 mm 116 W/m2
14:24 7.4 °C 4 °C 1020.5 hPa SW 8.4 km/h 16.1 km/h 79% 0 mm 128 W/m2
14:29 7.3 °C 4.1 °C 1020.5 hPa SW 7.7 km/h 16.1 km/h 79.8% 0 mm 113 W/m2
14:34 7.4 °C 4.2 °C 1020.5 hPa WSW 7.4 km/h 12.9 km/h 80% 0 mm 83 W/m2
14:39 7.3 °C 4.2 °C 1020.5 hPa SW 9 km/h 14.5 km/h 80% 0 mm 111 W/m2
14:44 7.3 °C 4.1 °C 1020.5 hPa SW 10.6 km/h 16.1 km/h 80% 0 mm 113 W/m2
14:49 7.3 °C 4.1 °C 1020.5 hPa SSW 7.4 km/h 14.5 km/h 80% 0 mm 144 W/m2
14:54 7.4 °C 4.2 °C 1020.5 hPa SW 10.3 km/h 19.3 km/h 80% 0 mm 179 W/m2
14:59 7.4 °C 4.2 °C 1020.2 hPa SW 4 km/h 16.1 km/h 80% 0 mm 144 W/m2
15:04 7.5 °C 4.3 °C 1020.5 hPa SW 8.2 km/h 12.9 km/h 80% 0 mm 95 W/m2
15:09 7.6 °C 4.4 °C 1020.5 hPa SW 6.3 km/h 12.9 km/h 80% 0 mm 70 W/m2
15:14 7.6 °C 4.3 °C 1020.2 hPa SSW 6.6 km/h 12.9 km/h 80% 0 mm 47 W/m2
15:19 7.5 °C 4.3 °C 1020.2 hPa SSW 5.6 km/h 11.3 km/h 80% 0 mm 42 W/m2
15:24 7.5 °C 4.3 °C 1020.2 hPa SSW 5.8 km/h 11.3 km/h 80% 0 mm 53 W/m2
15:29 7.6 °C 4.4 °C 1020.2 hPa SW 9.7 km/h 17.7 km/h 80.2% 0 mm 56 W/m2
15:34 7.6 °C 4.4 °C 1019.9 hPa SW 7.7 km/h 17.7 km/h 80.8% 0 mm 65 W/m2
15:39 7.7 °C 4.6 °C 1019.9 hPa WSW 7.1 km/h 14.5 km/h 81% 0 mm 72 W/m2
15:44 7.7 °C 4.6 °C 1019.9 hPa SW 7.6 km/h 19.3 km/h 81% 0 mm 79 W/m2
15:49 7.8 °C 4.7 °C 1019.9 hPa SW 6.1 km/h 16.1 km/h 81% 0 mm 116 W/m2
15:54 7.8 °C 4.7 °C 1019.9 hPa SW 8.4 km/h 16.1 km/h 81% 0 mm 144 W/m2
15:59 7.9 °C 4.8 °C 1019.9 hPa WSW 10.6 km/h 19.3 km/h 80.8% 0 mm 125 W/m2
16:04 7.8 °C 4.7 °C 1019.9 hPa SW 7.9 km/h 16.1 km/h 80.6% 0 mm 84 W/m2
16:09 7.9 °C 4.8 °C 1019.9 hPa WSW 8.4 km/h 19.3 km/h 81% 0 mm 69 W/m2
16:14 7.9 °C 4.8 °C 1019.9 hPa WSW 7.7 km/h 19.3 km/h 81% 0 mm 53 W/m2
16:19 7.8 °C 4.7 °C 1019.9 hPa SW 8.2 km/h 12.9 km/h 81% 0 mm 37 W/m2
16:24 7.8 °C 4.7 °C 1019.9 hPa WSW 7.7 km/h 16.1 km/h 81% 0 mm 32 W/m2
16:29 7.8 °C 4.7 °C 1019.9 hPa WSW 9.2 km/h 14.5 km/h 81% 0 mm 32 W/m2
16:34 7.8 °C 4.8 °C 1019.9 hPa SW 6 km/h 14.5 km/h 81.8% 0 mm 23 W/m2
16:39 7.8 °C 4.9 °C 1019.9 hPa SW 5.5 km/h 14.5 km/h 82% 0 mm 19 W/m2
16:44 7.7 °C 4.8 °C 1019.9 hPa SW 9.3 km/h 14.5 km/h 82% 0 mm 16 W/m2
16:49 7.6 °C 4.8 °C 1019.9 hPa WSW 6.4 km/h 14.5 km/h 82.8% 0 mm 11 W/m2
16:54 7.4 °C 4.8 °C 1019.9 hPa WSW 4.7 km/h 12.9 km/h 83.2% 0 mm 11 W/m2
16:59 7.4 °C 4.9 °C 1019.9 hPa SW 6.6 km/h 11.3 km/h 84% 0 mm 12 W/m2
17:04 7.3 °C 4.8 °C 1019.9 hPa SW 6 km/h 14.5 km/h 84.2% 0 mm 11 W/m2
17:09 7.2 °C 4.8 °C 1019.9 hPa SW 4.8 km/h 14.5 km/h 85% 0 mm 11 W/m2
17:14 7.2 °C 4.9 °C 1019.9 hPa SW 3.4 km/h 9.7 km/h 85.4% 0 mm 9 W/m2
17:19 7.2 °C 5 °C 1019.9 hPa SW 4 km/h 8 km/h 86% 0 mm 7 W/m2
17:24 7.1 °C 5.1 °C 1019.9 hPa SSW 5.3 km/h 9.7 km/h 86.6% 0 mm 5 W/m2
17:29 7 °C 5 °C 1019.9 hPa SSW 4 km/h 9.7 km/h 87% 0 mm 0 W/m2
17:34 6.9 °C 4.9 °C 1019.9 hPa SSW 5 km/h 9.7 km/h 87.2% 0 mm 0 W/m2
17:39 6.9 °C 5.1 °C 1019.9 hPa SSW 2.6 km/h 6.4 km/h 88% 0 mm 0 W/m2
17:44 6.8 °C 5.1 °C 1019.9 hPa SSW 3.9 km/h 9.7 km/h 88% 0 mm 0 W/m2
17:49 6.8 °C 5 °C 1019.9 hPa South 5.1 km/h 14.5 km/h 88.2% 0 mm 0 W/m2
17:54 6.7 °C 5 °C 1019.9 hPa South 3.4 km/h 9.7 km/h 89% 0 mm 0 W/m2
17:59 6.7 °C 5 °C 1019.9 hPa South 2.1 km/h 6.4 km/h 89% 0 mm 0 W/m2
18:04 6.7 °C 5 °C 1020.2 hPa South 0.6 km/h 3.2 km/h 89% 0 mm 0 W/m2
18:09 6.7 °C 5.2 °C 1019.9 hPa South 0.3 km/h 3.2 km/h 90% 0 mm 0 W/m2
18:14 6.7 °C 5.2 °C 1020.2 hPa South 1.6 km/h 4.8 km/h 90% 0 mm 0 W/m2
18:19 6.7 °C 5.2 °C 1019.9 hPa South 1.9 km/h 4.8 km/h 90% 0 mm 0 W/m2
18:24 6.7 °C 5.2 °C 1019.9 hPa South 1 km/h 4.8 km/h 90% 0 mm 0 W/m2
18:29 6.6 °C 5.1 °C 1019.9 hPa South 0.8 km/h 3.2 km/h 90% 0 mm 0 W/m2
18:34 6.6 °C 5.1 °C 1019.9 hPa South 2.3 km/h 4.8 km/h 90% 0 mm 0 W/m2
18:39 6.6 °C 5.2 °C 1020.2 hPa South 0.8 km/h 4.8 km/h 91% 0 mm 0 W/m2
18:44 6.6 °C 5.2 °C 1020.2 hPa South 0.6 km/h 4.8 km/h 91% 0 mm 0 W/m2
18:49 6.7 °C 5.3 °C 1020.2 hPa South 0.6 km/h 4.8 km/h 91% 0 mm 0 W/m2
18:54 6.6 °C 5.2 °C 1020.2 hPa South 1 km/h 4.8 km/h 91% 0 mm 0 W/m2
18:59 6.7 °C 5.3 °C 1020.2 hPa South 1.3 km/h 4.8 km/h 91% 0 mm 0 W/m2
19:04 6.7 °C 5.3 °C 1019.9 hPa SSW 0.6 km/h 4.8 km/h 91% 0 mm 0 W/m2
19:09 6.7 °C 5.3 °C 1020.2 hPa SSW 2.4 km/h 4.8 km/h 91% 0 mm 0 W/m2
19:14 6.7 °C 5.4 °C 1020.2 hPa SSW 0.3 km/h 4.8 km/h 91.8% 0 mm 0 W/m2
19:19 6.7 °C 5.5 °C 1020.2 hPa SSW 1.3 km/h 4.8 km/h 92% 0 mm 0 W/m2
19:24 6.7 °C 5.4 °C 1020.2 hPa SSW 1.6 km/h 4.8 km/h 92% 0 mm 0 W/m2
19:29 6.7 °C 5.5 °C 1020.5 hPa WSW 4.5 km/h 6.4 km/h 92% 0 mm 0 W/m2
19:34 6.7 °C 5.4 °C 1020.5 hPa WSW 3.7 km/h 6.4 km/h 92% 0 mm 0 W/m2
19:39 6.7 °C 5.4 °C 1020.2 hPa WSW 1.3 km/h 6.4 km/h 92% 0 mm 0 W/m2
19:44 6.7 °C 5.5 °C 1020.5 hPa WSW 1.1 km/h 4.8 km/h 92% 0 mm 0 W/m2
19:49 6.7 °C 5.5 °C 1020.5 hPa WSW 2.4 km/h 6.4 km/h 92% 0 mm 0 W/m2
19:54 6.7 °C 5.5 °C 1020.5 hPa WSW 2.3 km/h 4.8 km/h 92% 0 mm 0 W/m2
19:59 6.7 °C 5.5 °C 1020.5 hPa West 1.9 km/h 6.4 km/h 92% 0 mm 0 W/m2
20:04 6.7 °C 5.5 °C 1020.5 hPa NW 0.8 km/h 4.8 km/h 92% 0 mm 0 W/m2
20:09 6.7 °C 5.6 °C 1020.5 hPa NW 1 km/h 3.2 km/h 93% 0 mm 0 W/m2
20:14 6.7 °C 5.6 °C 1020.2 hPa NW 0.6 km/h 1.6 km/h 93% 0 mm 0 W/m2
20:19 6.7 °C 5.6 °C 1020.2 hPa WSW 2.1 km/h 6.4 km/h 93% 0 mm 0 W/m2
20:24 6.7 °C 5.7 °C 1020.2 hPa WSW 1.4 km/h 3.2 km/h 93% 0 mm 0 W/m2
20:29 6.7 °C 5.6 °C 1020.5 hPa WSW 1.6 km/h 4.8 km/h 93% 0 mm 0 W/m2
20:34 6.7 °C 5.6 °C 1020.5 hPa WSW 2.3 km/h 6.4 km/h 93% 0 mm 0 W/m2
20:39 6.7 °C 5.6 °C 1020.2 hPa West 2.9 km/h 6.4 km/h 93% 0 mm 0 W/m2
20:44 6.8 °C 5.7 °C 1020.2 hPa West 2.9 km/h 6.4 km/h 93% 0 mm 0 W/m2
20:49 6.8 °C 5.7 °C 1020.2 hPa West 2.1 km/h 4.8 km/h 93% 0 mm 0 W/m2
20:54 6.8 °C 5.7 °C 1020.2 hPa West 1.6 km/h 4.8 km/h 93% 0 mm 0 W/m2
20:58 6.9 °C 5.8 °C 1020.5 hPa West 0.8 km/h 4.8 km/h 93% 0 mm 0 W/m2
21:04 6.9 °C 5.8 °C 1020.5 hPa West 0.3 km/h 3.2 km/h 93% 0 mm 0 W/m2
21:09 6.9 °C 5.8 °C 1020.5 hPa Calm     93% 0 mm 0 W/m2
21:14 6.9 °C 5.8 °C 1020.5 hPa Calm     93% 0 mm 0 W/m2
21:19 7 °C 5.9 °C 1020.5 hPa West 0.3 km/h 3.2 km/h 93% 0 mm 0 W/m2
21:24 7.1 °C 6 °C 1020.5 hPa Calm   1.6 km/h 93% 0 mm 0 W/m2
21:29 7.1 °C 6 °C 1020.5 hPa West 1.4 km/h 4.8 km/h 93% 0 mm 0 W/m2
21:34 7.1 °C 6 °C 1020.5 hPa West 1.3 km/h 3.2 km/h 93% 0 mm 0 W/m2
21:39 7.1 °C 6 °C 1020.5 hPa West 0.6 km/h 4.8 km/h 93% 0 mm 0 W/m2
21:44 7.1 °C 6.1 °C 1020.5 hPa Calm   1.6 km/h 93.6% 0 mm 0 W/m2
21:49 7.1 °C 6.2 °C 1020.5 hPa West 0.6 km/h 3.2 km/h 94% 0 mm 0 W/m2
21:54 7.1 °C 6.2 °C 1020.5 hPa West 0.6 km/h 3.2 km/h 94% 0 mm 0 W/m2
21:59 7.2 °C 6.2 °C 1020.5 hPa West 1.3 km/h 3.2 km/h 93.6% 0 mm 0 W/m2
22:04 7.2 °C 6.1 °C 1020.5 hPa Calm   1.6 km/h 93% 0 mm 0 W/m2
22:09 7.2 °C 6.2 °C 1020.5 hPa Calm     93.4% 0 mm 0 W/m2
22:14 7.2 °C 6.2 °C 1020.5 hPa Calm     93.8% 0 mm 0 W/m2
22:19 7.2 °C 6.3 °C 1020.5 hPa Calm     94% 0 mm 0 W/m2
22:24 7.2 °C 6.3 °C 1020.5 hPa Calm     94% 0 mm 0 W/m2
22:29 7.2 °C 6.3 °C 1020.5 hPa Calm     94% 0 mm 0 W/m2
22:34 7.2 °C 6.3 °C 1020.5 hPa Calm     94% 0 mm 0 W/m2
22:39 7.2 °C 6.3 °C 1020.5 hPa Calm     94% 0 mm 0 W/m2
22:44 7.2 °C 6.3 °C 1020.5 hPa Calm     94% 0 mm 0 W/m2
22:49 7.2 °C 6.3 °C 1020.5 hPa Calm     94% 0 mm 0 W/m2
22:54 7.2 °C 6.3 °C 1020.5 hPa Calm     94% 0 mm 0 W/m2
22:59 7.2 °C 6.3 °C 1020.9 hPa Calm     94% 0 mm 0 W/m2
23:04 7.2 °C 6.3 °C 1020.5 hPa Calm     94% 0 mm 0 W/m2
23:09 7.2 °C 6.3 °C 1020.9 hPa Calm     94% 0 mm 0 W/m2
23:14 7.2 °C 6.3 °C 1020.9 hPa Calm     94% 0 mm 0 W/m2
23:19 7.2 °C 6.3 °C 1020.9 hPa Calm     94% 0 mm 0 W/m2
23:24 7.2 °C 6.3 °C 1020.9 hPa Calm     94% 0 mm 0 W/m2
23:29 7.3 °C 6.4 °C 1020.9 hPa Calm     94% 0 mm 0 W/m2
23:34 7.3 °C 6.4 °C 1020.9 hPa Calm     94% 0 mm 0 W/m2
23:39 7.3 °C 6.4 °C 1020.9 hPa Calm     94% 0 mm 0 W/m2
23:44 7.3 °C 6.4 °C 1020.9 hPa Calm     94% 0 mm 0 W/m2
23:49 7.3 °C 6.4 °C 1020.9 hPa Calm     94% 0 mm 0 W/m2
23:54 7.3 °C 6.4 °C 1020.5 hPa Calm     94% 0 mm 0 W/m2
23:59 7.3 °C 6.4 °C 1020.5 hPa Calm     94% 0 mm 0 W/m2
Bath Spa Weather
Compliments of Weather Underground - 2 mb